Time;durP1;ratioP1;P1;durP2;ratioP2;P2;SDS_P1;SDS_P2;PMS_P1;PMS_P2;Temp;Humidity;BMP_temperature;BMP_pressure;BME280_temperature;BME280_humidity;BME280_pressure;Samples;Min_cycle;Max_cycle;Signal;HPM_P1;HPM_P2
2022/06/16 00:01:18;0.00;0.00;0.62;0.00;0.00;0.62;3.73;2.13;;;27.80;23.40;;;;;;2251294;61;20434;-50
2022/06/16 00:04:03;0.00;0.00;0.62;0.00;0.00;0.62;2.93;2.20;;;27.80;23.40;;;;;;2251134;61;20887;-51
2022/06/16 00:06:49;0.00;0.00;0.62;0.00;0.00;0.62;2.20;2.00;;;27.80;23.50;;;;;;2251882;61;20399;-51
2022/06/16 00:09:34;0.00;0.00;0.62;0.00;0.00;0.62;2.67;2.30;;;27.80;23.50;;;;;;2250726;61;20394;-51
2022/06/16 00:12:19;0.00;0.00;0.62;0.00;0.00;0.62;3.00;2.03;;;27.70;23.40;;;;;;2251942;61;20394;-51
2022/06/16 00:15:06;0.00;0.00;0.62;0.00;0.00;0.62;4.03;2.30;;;27.70;23.40;;;;;;2251167;61;20502;-51
2022/06/16 00:17:52;0.00;0.00;0.62;0.00;0.00;0.62;2.60;2.10;;;27.70;23.40;;;;;;2251047;61;20438;-52
2022/06/16 00:20:37;0.00;0.00;0.62;0.00;0.00;0.62;2.90;2.50;;;27.70;23.40;;;;;;2252061;61;20366;-52
2022/06/16 00:23:25;0.00;0.00;0.62;0.00;0.00;0.62;2.77;2.03;;;27.70;23.40;;;;;;2250831;61;20379;-49
2022/06/16 00:26:12;0.00;0.00;0.62;0.00;0.00;0.62;2.17;1.90;;;27.70;23.50;;;;;;2251240;61;20391;-49
2022/06/16 00:28:57;0.00;0.00;0.62;0.00;0.00;0.62;2.50;1.87;;;27.70;23.50;;;;;;2251831;61;20413;-49
2022/06/16 00:31:42;0.00;0.00;0.62;0.00;0.00;0.62;2.90;2.23;;;27.70;23.50;;;;;;2250496;61;20438;-50
2022/06/16 00:34:28;0.00;0.00;0.62;0.00;0.00;0.62;2.90;2.20;;;27.70;23.50;;;;;;2251602;61;20363;-52
2022/06/16 00:37:12;0.00;0.00;0.62;0.00;0.00;0.62;3.73;2.00;;;27.70;23.50;;;;;;2251342;61;20407;-50
2022/06/16 00:39:59;0.00;0.00;0.62;0.00;0.00;0.62;4.57;2.00;;;27.70;23.50;;;;;;2250661;61;20370;-51
2022/06/16 00:42:44;0.00;0.00;0.62;0.00;0.00;0.62;3.20;2.13;;;27.70;23.50;;;;;;2248819;61;20418;-49
2022/06/16 00:45:46;0.00;0.00;0.62;0.00;0.00;0.62;3.60;2.17;;;27.70;23.50;;;;;;2251194;61;20423;-55
2022/06/16 00:48:34;0.00;0.00;0.62;0.00;0.00;0.62;2.63;2.07;;;27.70;23.50;;;;;;2250874;61;20355;-53
2022/06/16 00:51:26;0.00;0.00;0.62;0.00;0.00;0.62;2.27;2.00;;;27.70;23.70;;;;;;2251334;61;20367;-51
2022/06/16 00:54:21;0.00;0.00;0.62;0.00;0.00;0.62;3.33;2.03;;;27.70;23.70;;;;;;2250498;61;20770;-51
2022/06/16 00:57:13;0.00;0.00;0.62;0.00;0.00;0.62;3.30;2.00;;;27.60;23.60;;;;;;2251665;61;20391;-51
2022/06/16 01:00:00;0.00;0.00;0.62;0.00;0.00;0.62;2.37;1.90;;;27.60;23.60;;;;;;2247944;61;20418;-51
2022/06/16 01:02:44;0.00;0.00;0.62;0.00;0.00;0.62;2.90;1.87;;;27.60;23.60;;;;;;2250933;61;20886;-54
2022/06/16 01:05:29;0.00;0.00;0.62;0.00;0.00;0.62;2.90;1.93;;;27.60;23.60;;;;;;2251770;61;20403;-50
2022/06/16 01:08:14;0.00;0.00;0.62;0.00;0.00;0.62;3.07;2.10;;;27.60;23.60;;;;;;2250979;61;20363;-52
2022/06/16 01:11:08;0.00;0.00;0.62;0.00;0.00;0.62;3.00;2.60;;;27.60;23.60;;;;;;2251804;61;20457;-50
2022/06/16 01:13:57;0.00;0.00;0.62;0.00;0.00;0.62;3.50;2.23;;;27.60;23.60;;;;;;2251206;61;20371;-50
2022/06/16 01:16:46;0.00;0.00;0.62;0.00;0.00;0.62;3.30;2.20;;;27.60;23.60;;;;;;2248896;61;20387;-51
2022/06/16 01:20:00;0.00;0.00;0.62;0.00;0.00;0.62;3.50;2.20;;;27.60;23.50;;;;;;2249613;61;20371;-52
2022/06/16 01:23:19;0.00;0.00;0.62;0.00;0.00;0.62;2.30;1.93;;;27.50;23.40;;;;;;2250157;61;20446;-51
2022/06/16 01:26:30;0.00;0.00;0.62;0.00;0.00;0.62;2.63;2.43;;;27.50;23.40;;;;;;2243988;61;20477;-49
2022/06/16 01:29:25;0.00;0.00;0.62;0.00;0.00;0.62;2.30;1.77;;;27.50;23.50;;;;;;2247667;61;20403;-48
2022/06/16 01:32:19;0.00;0.00;0.62;0.00;0.00;0.62;3.53;2.20;;;27.40;23.50;;;;;;2249834;61;20390;-49
2022/06/16 01:35:17;0.00;0.00;0.62;0.00;0.00;0.62;2.97;2.43;;;27.40;23.50;;;;;;2247766;61;20595;-49
2022/06/16 01:38:12;0.00;0.00;0.62;0.00;0.00;0.62;3.97;2.60;;;27.40;23.50;;;;;;2246666;61;20386;-52
2022/06/16 01:41:08;0.00;0.00;0.62;0.00;0.00;0.62;3.10;2.30;;;27.40;23.50;;;;;;2251411;61;20367;-48
2022/06/16 01:44:01;0.00;0.00;0.62;0.00;0.00;0.62;2.43;1.90;;;27.40;23.50;;;;;;2250407;61;20860;-49
2022/06/16 01:46:53;0.00;0.00;0.62;0.00;0.00;0.62;3.93;1.93;;;27.40;23.50;;;;;;2247030;61;20418;-50
2022/06/16 01:49:48;0.00;0.00;0.62;0.00;0.00;0.62;3.20;2.50;;;27.40;23.50;;;;;;2250947;61;20387;-53
2022/06/16 01:52:39;0.00;0.00;0.62;0.00;0.00;0.62;2.90;2.30;;;27.40;23.50;;;;;;2250671;61;20426;-54
2022/06/16 01:55:30;0.00;0.00;0.62;0.00;0.00;0.62;8.87;2.70;;;27.40;23.50;;;;;;2247661;61;20387;-51
2022/06/16 01:58:21;0.00;0.00;0.62;0.00;0.00;0.62;3.47;2.23;;;27.40;23.40;;;;;;2250456;61;20375;-49
2022/06/16 02:01:14;0.00;0.00;0.62;0.00;0.00;0.62;2.77;2.30;;;27.30;23.30;;;;;;2246933;61;20371;-52
2022/06/16 02:04:07;0.00;0.00;0.62;0.00;0.00;0.62;3.70;2.30;;;27.30;23.30;;;;;;2247843;61;20949;-49
2022/06/16 02:06:57;0.00;0.00;0.62;0.00;0.00;0.62;5.10;2.57;;;27.30;23.40;;;;;;2247020;61;20434;-52
2022/06/16 02:09:46;0.00;0.00;0.62;0.00;0.00;0.62;4.70;2.27;;;27.30;23.40;;;;;;2246999;61;20790;-51
2022/06/16 02:15:52;0.00;0.00;0.62;0.00;0.00;0.62;2.80;2.30;;;27.20;23.40;;;;;;2247115;61;20430;-51
2022/06/16 02:18:41;0.00;0.00;0.62;0.00;0.00;0.62;4.10;2.40;;;27.20;23.50;;;;;;2248433;61;20378;-48
2022/06/16 02:21:34;0.00;0.00;0.62;0.00;0.00;0.62;2.60;2.17;;;27.10;23.40;;;;;;2246613;61;20423;-50
2022/06/16 02:24:24;0.00;0.00;0.62;0.00;0.00;0.62;3.47;2.63;;;27.10;23.40;;;;;;2249689;61;20475;-49
2022/06/16 02:27:09;0.00;0.00;0.62;0.00;0.00;0.62;3.03;2.13;;;27.10;23.40;;;;;;2245751;61;20379;-51
2022/06/16 02:29:56;0.00;0.00;0.62;0.00;0.00;0.62;2.20;2.00;;;27.10;23.40;;;;;;2246292;61;20439;-54
2022/06/16 02:32:58;0.00;0.00;0.62;0.00;0.00;0.62;2.23;1.83;;;27.00;23.30;;;;;;2248367;61;21267;-50
2022/06/16 02:35:54;0.00;0.00;0.62;0.00;0.00;0.62;2.37;1.60;;;27.00;23.30;;;;;;2247996;61;20383;-48
2022/06/16 02:38:57;0.00;0.00;0.62;0.00;0.00;0.62;2.97;2.30;;;27.00;23.30;;;;;;2250577;61;20374;-54
2022/06/16 02:41:57;0.00;0.00;0.62;0.00;0.00;0.62;3.10;2.17;;;27.00;23.30;;;;;;2251627;61;20375;-49
2022/06/16 02:44:56;0.00;0.00;0.62;0.00;0.00;0.62;2.77;2.37;;;27.00;23.30;;;;;;2249899;61;20381;-51
2022/06/16 02:47:58;0.00;0.00;0.62;0.00;0.00;0.62;4.10;2.43;;;27.00;23.30;;;;;;2251550;61;20355;-47
2022/06/16 02:50:52;0.00;0.00;0.62;0.00;0.00;0.62;2.67;2.33;;;27.00;23.30;;;;;;2247840;61;20941;-50
2022/06/16 02:53:51;0.00;0.00;0.62;0.00;0.00;0.62;3.03;2.73;;;26.90;23.30;;;;;;2247419;61;20882;-49
2022/06/16 02:56:47;0.00;0.00;0.62;0.00;0.00;0.62;3.27;2.40;;;26.90;23.40;;;;;;2248319;61;20463;-49
2022/06/16 02:59:39;0.00;0.00;0.62;0.00;0.00;0.62;3.73;2.60;;;26.90;23.40;;;;;;2246692;61;20781;-47
2022/06/16 03:02:25;0.00;0.00;0.62;0.00;0.00;0.62;3.17;2.50;;;26.90;23.40;;;;;;2251732;61;20899;-50
2022/06/16 03:05:13;0.00;0.00;0.62;0.00;0.00;0.62;2.87;2.03;;;26.90;23.50;;;;;;2250930;61;20382;-47
2022/06/16 03:07:59;0.00;0.00;0.62;0.00;0.00;0.62;2.70;1.90;;;26.90;23.50;;;;;;2247948;61;20371;-52
2022/06/16 03:10:52;0.00;0.00;0.62;0.00;0.00;0.62;2.70;2.00;;;26.90;23.60;;;;;;2246170;61;20417;-49
2022/06/16 03:13:36;0.00;0.00;0.62;0.00;0.00;0.62;2.47;2.27;;;26.90;23.50;;;;;;2248259;61;20378;-53
2022/06/16 03:16:22;0.00;0.00;0.62;0.00;0.00;0.62;2.83;2.07;;;26.90;23.50;;;;;;2248093;61;20394;-50
2022/06/16 03:19:07;0.00;0.00;0.62;0.00;0.00;0.62;2.97;2.03;;;26.90;23.50;;;;;;2248870;61;20379;-53
2022/06/16 03:21:54;0.00;0.00;0.62;0.00;0.00;0.62;2.73;2.33;;;26.90;23.50;;;;;;2247881;61;20395;-51
2022/06/16 03:24:40;0.00;0.00;0.62;0.00;0.00;0.62;3.30;2.60;;;26.90;23.50;;;;;;2248654;61;20766;-50
2022/06/16 03:27:27;0.00;0.00;0.62;0.00;0.00;0.62;3.87;2.43;;;26.90;23.50;;;;;;2248673;61;20394;-50
2022/06/16 03:30:14;0.00;0.00;0.62;0.00;0.00;0.62;4.00;2.20;;;26.90;23.50;;;;;;2248013;61;20371;-51
2022/06/16 03:33:01;0.00;0.00;0.62;0.00;0.00;0.62;2.80;2.20;;;26.90;23.60;;;;;;2248456;61;20402;-50
2022/06/16 03:35:46;0.00;0.00;0.62;0.00;0.00;0.62;3.33;2.70;;;26.80;23.50;;;;;;2248260;61;20386;-50
2022/06/16 03:41:23;0.00;0.00;0.62;0.00;0.00;0.62;4.73;2.63;;;26.80;23.60;;;;;;2248849;61;20887;-51
2022/06/16 03:44:15;0.00;0.00;0.62;0.00;0.00;0.62;3.20;2.10;;;26.80;23.70;;;;;;2247436;61;21196;-49
2022/06/16 03:47:00;0.00;0.00;0.62;0.00;0.00;0.62;4.43;2.17;;;26.70;23.70;;;;;;2248830;61;20398;-49
2022/06/16 03:49:52;0.00;0.00;0.62;0.00;0.00;0.62;3.87;2.50;;;26.70;23.70;;;;;;2248525;61;20895;-51
2022/06/16 03:52:38;0.00;0.00;0.62;0.00;0.00;0.62;3.03;2.10;;;26.60;23.70;;;;;;2248060;61;20371;-52
2022/06/16 03:55:25;0.00;0.00;0.62;0.00;0.00;0.62;4.00;2.13;;;26.60;23.80;;;;;;2248598;61;20885;-49
2022/06/16 03:58:11;0.00;0.00;0.62;0.00;0.00;0.62;2.30;2.10;;;26.60;23.80;;;;;;2251118;61;20445;-49
2022/06/16 04:00:57;0.00;0.00;0.62;0.00;0.00;0.62;3.67;2.03;;;26.60;23.80;;;;;;2248026;61;20366;-50
2022/06/16 04:04:01;0.00;0.00;0.62;0.00;0.00;0.62;4.07;1.83;;;26.60;23.90;;;;;;2248871;61;20517;-49
2022/06/16 04:06:51;0.00;0.00;0.62;0.00;0.00;0.62;3.27;2.30;;;26.60;23.90;;;;;;2250438;61;20401;-49
2022/06/16 04:09:41;0.00;0.00;0.62;0.00;0.00;0.62;2.60;2.23;;;26.60;23.90;;;;;;2248319;61;20953;-54
2022/06/16 04:12:26;0.00;0.00;0.62;0.00;0.00;0.62;2.90;1.97;;;26.50;23.90;;;;;;2249969;61;20463;-50
2022/06/16 04:15:12;0.00;0.00;0.62;0.00;0.00;0.62;3.67;1.83;;;26.50;23.90;;;;;;2246582;61;20370;-54
2022/06/16 04:18:00;0.00;0.00;0.62;0.00;0.00;0.62;3.00;2.20;;;26.50;23.90;;;;;;2250438;61;20430;-54
2022/06/16 04:20:51;0.00;0.00;0.62;0.00;0.00;0.62;3.80;2.10;;;26.50;23.90;;;;;;2246926;61;20371;-52
2022/06/16 04:23:57;0.00;0.00;0.62;0.00;0.00;0.62;4.57;2.70;;;26.50;24.00;;;;;;2246455;61;20914;-52
2022/06/16 04:26:45;0.00;0.00;0.62;0.00;0.00;0.62;3.37;2.50;;;26.50;24.10;;;;;;2247541;61;20406;-53
2022/06/16 04:29:31;0.00;0.00;0.62;0.00;0.00;0.62;4.00;2.80;;;26.50;24.00;;;;;;2247218;61;20398;-51
2022/06/16 04:32:17;0.00;0.00;0.62;0.00;0.00;0.62;3.20;2.33;;;26.50;24.10;;;;;;2251674;61;20502;-50
2022/06/16 04:35:08;0.00;0.00;0.62;0.00;0.00;0.62;3.30;2.40;;;26.50;24.10;;;;;;2247208;61;20394;-52
2022/06/16 04:38:06;0.00;0.00;0.62;0.00;0.00;0.62;2.77;2.40;;;26.50;24.20;;;;;;2247419;61;20426;-52
2022/06/16 04:40:54;0.00;0.00;0.62;0.00;0.00;0.62;2.90;1.70;;;26.40;24.20;;;;;;2247587;61;20430;-51
2022/06/16 04:43:39;0.00;0.00;0.62;0.00;0.00;0.62;3.40;2.17;;;26.50;24.20;;;;;;2249914;61;20359;-50
2022/06/16 04:46:29;0.00;0.00;0.62;0.00;0.00;0.62;4.20;2.20;;;26.50;24.30;;;;;;2250363;61;20822;-51
2022/06/16 04:49:14;0.00;0.00;0.62;0.00;0.00;0.62;3.00;1.90;;;26.40;24.20;;;;;;2250055;61;20930;-50
2022/06/16 04:52:07;0.00;0.00;0.62;0.00;0.00;0.62;4.13;2.17;;;26.40;24.20;;;;;;2247516;61;21051;-50
2022/06/16 04:54:52;0.00;0.00;0.62;0.00;0.00;0.62;2.30;2.10;;;26.40;24.30;;;;;;2247865;61;20895;-49
2022/06/16 04:57:54;0.00;0.00;0.62;0.00;0.00;0.62;2.93;2.17;;;26.40;24.30;;;;;;2246404;61;20425;-50
2022/06/16 05:01:08;0.00;0.00;0.62;0.00;0.00;0.62;3.30;2.17;;;26.40;24.30;;;;;;2235860;61;20479;-48
2022/06/16 05:04:09;0.00;0.00;0.62;0.00;0.00;0.62;5.00;2.40;;;26.40;24.30;;;;;;2247199;61;20442;-48
2022/06/16 05:07:14;0.00;0.00;0.62;0.00;0.00;0.62;3.07;2.37;;;26.30;24.30;;;;;;2250084;61;20414;-51
2022/06/16 05:10:13;0.00;0.00;0.62;0.00;0.00;0.62;3.00;2.43;;;26.30;24.40;;;;;;2251082;61;20367;-50
2022/06/16 05:13:22;0.00;0.00;0.62;0.00;0.00;0.62;3.10;2.20;;;26.40;24.40;;;;;;2246945;61;20370;-49
2022/06/16 05:16:30;0.00;0.00;0.62;0.00;0.00;0.62;2.97;2.67;;;26.30;24.40;;;;;;2251218;61;20915;-53
2022/06/16 05:19:30;0.00;0.00;0.62;0.00;0.00;0.62;4.97;2.70;;;26.30;24.50;;;;;;2250335;61;20355;-51
2022/06/16 05:22:35;0.00;0.00;0.62;0.00;0.00;0.62;2.93;2.33;;;26.30;24.50;;;;;;2251700;61;20390;-51
2022/06/16 05:25:33;0.00;0.00;0.62;0.00;0.00;0.62;2.70;2.50;;;26.30;24.50;;;;;;2247984;61;20434;-51
2022/06/16 05:28:30;0.00;0.00;0.62;0.00;0.00;0.62;3.60;2.40;;;26.30;24.60;;;;;;2247333;61;20397;-52
2022/06/16 05:31:38;0.00;0.00;0.62;0.00;0.00;0.62;4.63;2.90;;;26.30;24.60;;;;;;2251431;61;20371;-52
2022/06/16 05:34:42;0.00;0.00;0.62;0.00;0.00;0.62;4.13;2.47;;;26.30;24.70;;;;;;2485217;53;20358;-52
2022/06/16 05:37:38;0.00;0.00;0.62;0.00;0.00;0.62;4.10;2.30;;;26.30;24.70;;;;;;2251696;61;20921;-49
2022/06/16 05:40:42;0.00;0.00;0.62;0.00;0.00;0.62;2.50;2.10;;;26.30;24.80;;;;;;2251201;61;20858;-51
2022/06/16 05:43:50;0.00;0.00;0.62;0.00;0.00;0.62;3.43;2.47;;;26.20;24.70;;;;;;2250388;61;20785;-50
2022/06/16 05:46:51;0.00;0.00;0.62;0.00;0.00;0.62;3.50;2.33;;;26.30;24.90;;;;;;2248367;61;20370;-49
2022/06/16 05:49:40;0.00;0.00;0.62;0.00;0.00;0.62;2.57;2.10;;;26.20;24.80;;;;;;2247558;61;20410;-53
2022/06/16 05:52:27;0.00;0.00;0.62;0.00;0.00;0.62;3.37;2.23;;;26.30;24.80;;;;;;2248459;61;21070;-50
2022/06/16 05:55:24;0.00;0.00;0.62;0.00;0.00;0.62;3.43;2.37;;;26.20;24.80;;;;;;2247944;61;20418;-50
2022/06/16 05:58:10;0.00;0.00;0.62;0.00;0.00;0.62;3.23;2.30;;;26.20;24.90;;;;;;2248934;61;20510;-50
2022/06/16 06:01:05;0.00;0.00;0.62;0.00;0.00;0.62;2.43;2.00;;;26.20;24.90;;;;;;2251262;61;20362;-48
2022/06/16 06:03:50;0.00;0.00;0.62;0.00;0.00;0.62;4.87;2.23;;;26.20;24.90;;;;;;2247425;61;20398;-50
2022/06/16 06:06:36;0.00;0.00;0.62;0.00;0.00;0.62;3.90;2.30;;;26.20;24.90;;;;;;2247586;61;20484;-48
2022/06/16 06:19:24;0.00;0.00;0.62;0.00;0.00;0.62;3.23;2.00;;;26.20;25.10;;;;;;2241877;61;20427;-50
2022/06/16 06:22:13;0.00;0.00;0.62;0.00;0.00;0.62;2.50;1.70;;;26.20;25.10;;;;;;2242711;61;20437;-53
2022/06/16 06:25:00;0.00;0.00;0.62;0.00;0.00;0.62;4.17;2.43;;;26.20;25.10;;;;;;2247807;61;20439;-50
2022/06/16 06:27:50;0.00;0.00;0.62;0.00;0.00;0.62;2.30;2.10;;;26.20;25.20;;;;;;2247624;61;20899;-50
2022/06/16 06:30:35;0.00;0.00;0.62;0.00;0.00;0.62;5.00;2.13;;;26.20;25.20;;;;;;2251169;61;20367;-50
2022/06/16 06:33:23;0.00;0.00;0.62;0.00;0.00;0.62;2.53;2.00;;;26.20;25.20;;;;;;2247478;61;20362;-50
2022/06/16 06:36:08;0.00;0.00;0.62;0.00;0.00;0.62;2.83;1.90;;;26.20;25.20;;;;;;2250455;61;20517;-52
2022/06/16 06:38:53;0.00;0.00;0.62;0.00;0.00;0.62;6.43;2.20;;;26.20;25.30;;;;;;2248942;61;20370;-51
2022/06/16 06:41:38;0.00;0.00;0.62;0.00;0.00;0.62;2.93;2.10;;;26.20;25.30;;;;;;2250991;61;20371;-50
2022/06/16 06:44:25;0.00;0.00;0.62;0.00;0.00;0.62;2.97;2.40;;;26.20;25.30;;;;;;2250716;61;20358;-51
2022/06/16 06:47:17;0.00;0.00;0.62;0.00;0.00;0.62;2.90;2.03;;;26.20;25.40;;;;;;2251352;61;21125;-53
2022/06/16 06:50:03;0.00;0.00;0.62;0.00;0.00;0.62;2.73;2.20;;;26.10;25.40;;;;;;2251601;61;20359;-52
2022/06/16 06:52:50;0.00;0.00;0.62;0.00;0.00;0.62;5.07;2.20;;;26.20;25.60;;;;;;2251731;61;20386;-50
2022/06/16 06:55:38;0.00;0.00;0.62;0.00;0.00;0.62;3.77;2.70;;;26.20;25.80;;;;;;2251717;61;20398;-51
2022/06/16 06:58:24;0.00;0.00;0.62;0.00;0.00;0.62;2.90;2.00;;;26.10;25.80;;;;;;2251658;61;20858;-51
2022/06/16 07:01:10;0.00;0.00;0.62;0.00;0.00;0.62;3.40;2.03;;;26.20;25.90;;;;;;2251653;61;20815;-54
2022/06/16 07:03:55;0.00;0.00;0.62;0.00;0.00;0.62;3.73;2.27;;;26.20;25.80;;;;;;2251356;61;20402;-51
2022/06/16 07:06:41;0.00;0.00;0.62;0.00;0.00;0.62;4.00;2.40;;;26.10;25.90;;;;;;2252082;61;20437;-51
2022/06/16 07:09:26;0.00;0.00;0.62;0.00;0.00;0.62;6.40;2.13;;;26.10;25.90;;;;;;2251544;61;20362;-57
2022/06/16 07:12:15;0.00;0.00;0.62;0.00;0.00;0.62;3.60;2.60;;;26.10;25.90;;;;;;2248192;61;20855;-50
2022/06/16 07:15:01;0.00;0.00;0.62;0.00;0.00;0.62;3.30;2.43;;;26.10;26.60;;;;;;2249651;61;20371;-48
2022/06/16 07:17:48;0.00;0.00;0.62;0.00;0.00;0.62;3.40;1.80;;;26.10;26.10;;;;;;2251387;61;20410;-50
2022/06/16 07:20:33;0.00;0.00;0.62;0.00;0.00;0.62;4.30;2.13;;;26.00;25.90;;;;;;2251788;61;20370;-52
2022/06/16 07:23:18;0.00;0.00;0.62;0.00;0.00;0.62;3.60;2.47;;;26.00;25.90;;;;;;2251964;61;20367;-55
2022/06/16 07:26:04;0.00;0.00;0.62;0.00;0.00;0.62;3.80;2.13;;;26.10;26.00;;;;;;2251157;61;20386;-52
2022/06/16 07:28:49;0.00;0.00;0.62;0.00;0.00;0.62;4.77;2.47;;;26.00;25.90;;;;;;2252053;61;20354;-48
2022/06/16 07:31:34;0.00;0.00;0.62;0.00;0.00;0.62;3.83;2.40;;;26.00;26.00;;;;;;2252124;61;20363;-54
2022/06/16 07:34:21;0.00;0.00;0.62;0.00;0.00;0.62;3.17;2.17;;;26.00;26.00;;;;;;2250649;61;20366;-48
2022/06/16 07:37:06;0.00;0.00;0.62;0.00;0.00;0.62;3.77;2.37;;;26.10;26.10;;;;;;2251987;61;20391;-49
2022/06/16 07:39:50;0.00;0.00;0.62;0.00;0.00;0.62;2.53;2.20;;;26.00;26.00;;;;;;2251210;61;20362;-56
2022/06/16 07:42:35;0.00;0.00;0.62;0.00;0.00;0.62;3.23;2.10;;;26.00;25.90;;;;;;2251582;61;20358;-50
2022/06/16 07:45:20;0.00;0.00;0.62;0.00;0.00;0.62;3.07;1.77;;;26.00;25.90;;;;;;2252072;61;20386;-51
2022/06/16 07:48:07;0.00;0.00;0.62;0.00;0.00;0.62;2.40;1.73;;;26.00;25.90;;;;;;2251195;61;20486;-53
2022/06/16 07:50:54;0.00;0.00;0.62;0.00;0.00;0.62;5.97;2.13;;;26.00;25.90;;;;;;2251352;61;20400;-51
2022/06/16 07:53:39;0.00;0.00;0.62;0.00;0.00;0.62;2.13;1.73;;;26.10;25.90;;;;;;2251892;61;20410;-52
2022/06/16 07:56:23;0.00;0.00;0.62;0.00;0.00;0.62;1.70;1.50;;;26.00;25.80;;;;;;2251029;61;20390;-50
2022/06/16 07:59:08;0.00;0.00;0.62;0.00;0.00;0.62;3.33;1.97;;;26.10;25.90;;;;;;2252278;61;20371;-56
2022/06/16 08:01:54;0.00;0.00;0.62;0.00;0.00;0.62;4.00;2.13;;;26.10;26.00;;;;;;2251596;61;20410;-56
2022/06/16 08:04:39;0.00;0.00;0.62;0.00;0.00;0.62;2.00;1.70;;;26.10;25.90;;;;;;2251977;61;20895;-56
2022/06/16 08:07:25;0.00;0.00;0.62;0.00;0.00;0.62;2.47;1.60;;;26.10;26.00;;;;;;2252261;61;20840;-54
2022/06/16 08:10:14;0.00;0.00;0.62;0.00;0.00;0.62;2.70;1.70;;;26.10;26.00;;;;;;2251592;61;20367;-55
2022/06/16 08:12:59;0.00;0.00;0.62;0.00;0.00;0.62;2.67;1.80;;;26.20;26.10;;;;;;2253304;61;20378;-56
2022/06/16 08:15:46;0.00;0.00;0.62;0.00;0.00;0.62;2.80;1.90;;;26.20;26.00;;;;;;2251764;61;20386;-55
2022/06/16 08:18:31;0.00;0.00;0.62;0.00;0.00;0.62;1.90;1.30;;;26.20;26.00;;;;;;2251639;61;20486;-52
2022/06/16 08:21:16;0.00;0.00;0.62;0.00;0.00;0.62;1.97;1.63;;;26.30;26.00;;;;;;2252604;61;20382;-55
2022/06/16 08:24:03;0.00;0.00;0.62;0.00;0.00;0.62;3.77;1.60;;;26.30;26.00;;;;;;2251073;61;20359;-56
2022/06/16 08:26:49;0.00;0.00;0.62;0.00;0.00;0.62;2.93;2.03;;;26.30;26.00;;;;;;2251680;61;20390;-57
2022/06/16 08:29:37;0.00;0.00;0.62;0.00;0.00;0.62;2.57;1.73;;;26.30;26.00;;;;;;2252203;61;20375;-54
2022/06/16 08:32:23;0.00;0.00;0.62;0.00;0.00;0.62;3.93;1.87;;;26.30;26.00;;;;;;2251841;61;20474;-50
2022/06/16 08:35:08;0.00;0.00;0.62;0.00;0.00;0.62;3.50;1.60;;;26.30;26.00;;;;;;2251808;61;20365;-52
2022/06/16 08:37:53;0.00;0.00;0.62;0.00;0.00;0.62;1.70;1.33;;;26.40;26.10;;;;;;2248423;61;20469;-51
2022/06/16 08:40:45;0.00;0.00;0.62;0.00;0.00;0.62;2.17;1.50;;;26.40;26.10;;;;;;2251540;61;20363;-53
2022/06/16 08:43:31;0.00;0.00;0.62;0.00;0.00;0.62;1.93;1.50;;;26.50;26.10;;;;;;2248965;61;20505;-53
2022/06/16 08:46:18;0.00;0.00;0.62;0.00;0.00;0.62;2.10;1.43;;;26.50;26.00;;;;;;2251776;61;21045;-47
2022/06/16 08:49:15;0.00;0.00;0.62;0.00;0.00;0.62;3.40;1.57;;;26.50;26.10;;;;;;2251614;61;20890;-48
2022/06/16 08:52:17;0.00;0.00;0.62;0.00;0.00;0.62;2.57;1.50;;;26.50;26.00;;;;;;2248700;61;20363;-53
2022/06/16 08:55:14;0.00;0.00;0.62;0.00;0.00;0.62;2.93;1.87;;;26.50;26.00;;;;;;2251537;61;20453;-54
2022/06/16 08:58:19;0.00;0.00;0.62;0.00;0.00;0.62;2.93;1.70;;;26.60;26.00;;;;;;2251824;61;20474;-54
2022/06/16 09:01:12;0.00;0.00;0.62;0.00;0.00;0.62;3.23;2.07;;;26.60;26.00;;;;;;2251414;61;20777;-52
2022/06/16 09:04:05;0.00;0.00;0.62;0.00;0.00;0.62;2.70;1.70;;;26.60;26.10;;;;;;2251359;61;20895;-53
2022/06/16 09:06:59;0.00;0.00;0.62;0.00;0.00;0.62;2.00;1.80;;;26.70;26.10;;;;;;2246412;61;20433;-57
2022/06/16 09:10:17;0.00;0.00;0.62;0.00;0.00;0.62;3.63;1.73;;;26.70;26.10;;;;;;2251088;61;20433;-58
2022/06/16 09:14:00;0.00;0.00;0.62;0.00;0.00;0.62;5.23;1.90;;;26.70;26.20;;;;;;2252139;61;20771;-57
2022/06/16 09:16:53;0.00;0.00;0.62;0.00;0.00;0.62;4.43;2.60;;;26.70;26.20;;;;;;2239419;61;20413;-57
2022/06/16 09:19:52;0.00;0.00;0.62;0.00;0.00;0.62;4.93;2.40;;;26.80;26.20;;;;;;2254269;61;20361;-57
2022/06/16 09:22:56;0.00;0.00;0.62;0.00;0.00;0.62;4.27;2.33;;;26.80;26.20;;;;;;2252923;61;20370;-50
2022/06/16 09:25:54;0.00;0.00;0.62;0.00;0.00;0.62;2.80;1.80;;;26.80;26.20;;;;;;2252002;61;20387;-48
2022/06/16 09:28:46;0.00;0.00;0.62;0.00;0.00;0.62;2.57;2.00;;;26.80;26.20;;;;;;2251953;61;20782;-58
2022/06/16 09:31:38;0.00;0.00;0.62;0.00;0.00;0.62;2.97;2.17;;;26.80;26.20;;;;;;2251099;61;20362;-59
2022/06/16 09:34:33;0.00;0.00;0.62;0.00;0.00;0.62;4.77;2.50;;;26.90;26.20;;;;;;2251539;61;20957;-53
2022/06/16 09:37:24;0.00;0.00;0.62;0.00;0.00;0.62;3.70;3.00;;;26.90;26.20;;;;;;2248364;61;20395;-51
2022/06/16 09:40:17;0.00;0.00;0.62;0.00;0.00;0.62;2.77;2.00;;;26.90;26.10;;;;;;2250850;61;20478;-51
2022/06/16 09:43:12;0.00;0.00;0.62;0.00;0.00;0.62;3.27;2.23;;;26.90;26.00;;;;;;2251734;61;20442;-50
2022/06/16 09:46:01;0.00;0.00;0.62;0.00;0.00;0.62;4.87;2.27;;;27.00;25.90;;;;;;2250966;61;20977;-51
2022/06/16 09:48:52;0.00;0.00;0.62;0.00;0.00;0.62;3.03;2.20;;;27.00;25.80;;;;;;2251276;61;20779;-52
2022/06/16 09:51:46;0.00;0.00;0.62;0.00;0.00;0.62;4.23;2.70;;;27.00;26.30;;;;;;2251886;61;20422;-53
2022/06/16 09:54:37;0.00;0.00;0.62;0.00;0.00;0.62;3.10;1.80;;;27.00;25.70;;;;;;2250696;61;20433;-51
2022/06/16 09:57:31;0.00;0.00;0.62;0.00;0.00;0.62;3.40;2.13;;;27.00;25.70;;;;;;2251701;61;20426;-53
2022/06/16 10:00:21;0.00;0.00;0.62;0.00;0.00;0.62;2.70;2.13;;;27.00;26.30;;;;;;2251112;61;20366;-53
2022/06/16 10:03:20;0.00;0.00;0.62;0.00;0.00;0.62;6.10;2.70;;;27.00;25.80;;;;;;2251166;61;20510;-50
2022/06/16 10:06:29;0.00;0.00;0.62;0.00;0.00;0.62;2.60;2.10;;;27.10;25.80;;;;;;2248068;61;20486;-51
2022/06/16 10:09:22;0.00;0.00;0.62;0.00;0.00;0.62;2.63;2.10;;;27.10;25.70;;;;;;2250886;61;20363;-52
2022/06/16 10:12:17;0.00;0.00;0.62;0.00;0.00;0.62;3.00;2.17;;;27.10;25.70;;;;;;2251658;61;20402;-53
2022/06/16 10:15:12;0.00;0.00;0.62;0.00;0.00;0.62;3.50;2.00;;;27.10;25.60;;;;;;2249027;61;20880;-48
2022/06/16 10:17:58;0.00;0.00;0.62;0.00;0.00;0.62;4.03;2.13;;;27.10;25.60;;;;;;2247218;61;20438;-49
2022/06/16 10:20:43;0.00;0.00;0.62;0.00;0.00;0.62;3.33;2.00;;;27.10;25.60;;;;;;2247712;61;20375;-49
2022/06/16 10:23:36;0.00;0.00;0.62;0.00;0.00;0.62;3.43;2.07;;;27.10;25.50;;;;;;2246900;61;20363;-51
2022/06/16 10:26:21;0.00;0.00;0.62;0.00;0.00;0.62;4.53;1.90;;;27.10;25.40;;;;;;2244560;61;20859;-55
2022/06/16 10:29:20;0.00;0.00;0.62;0.00;0.00;0.62;5.00;1.60;;;27.20;25.40;;;;;;2247332;61;20415;-50
2022/06/16 10:32:16;0.00;0.00;0.62;0.00;0.00;0.62;4.43;1.93;;;27.20;25.40;;;;;;2247361;61;20503;-56
2022/06/16 10:35:02;0.00;0.00;0.62;0.00;0.00;0.62;2.87;2.10;;;27.20;25.40;;;;;;2247627;61;20403;-50
2022/06/16 10:37:52;0.00;0.00;0.62;0.00;0.00;0.62;2.97;1.90;;;27.20;25.90;;;;;;2247015;61;20538;-58
2022/06/16 10:40:41;0.00;0.00;0.62;0.00;0.00;0.62;2.77;1.93;;;27.20;25.40;;;;;;2247199;61;20371;-54
2022/06/16 10:43:29;0.00;0.00;0.62;0.00;0.00;0.62;2.83;1.93;;;27.20;25.40;;;;;;2246992;61;20372;-57
2022/06/16 10:46:20;0.00;0.00;0.62;0.00;0.00;0.62;2.93;1.70;;;27.20;25.40;;;;;;2246748;61;20423;-50
2022/06/16 10:49:15;0.00;0.00;0.62;0.00;0.00;0.62;4.30;1.67;;;27.20;25.30;;;;;;2247348;61;20462;-48
2022/06/16 10:52:06;0.00;0.00;0.62;0.00;0.00;0.62;5.17;1.70;;;27.20;25.30;;;;;;2247072;61;20391;-48
2022/06/16 10:54:58;0.00;0.00;0.62;0.00;0.00;0.62;3.37;1.70;;;27.20;25.20;;;;;;2246780;61;20445;-49
2022/06/16 10:57:48;0.00;0.00;0.62;0.00;0.00;0.62;2.50;1.63;;;27.20;25.10;;;;;;2247649;61;20431;-47
2022/06/16 11:00:36;0.00;0.00;0.62;0.00;0.00;0.62;3.90;1.40;;;27.20;25.00;;;;;;2246670;61;20950;-55
2022/06/16 11:03:24;0.00;0.00;0.62;0.00;0.00;0.62;2.90;1.87;;;27.20;25.00;;;;;;2247316;61;20416;-53
2022/06/16 11:06:13;0.00;0.00;0.62;0.00;0.00;0.62;3.93;1.63;;;27.20;25.50;;;;;;2247167;61;20402;-49
2022/06/16 11:09:01;0.00;0.00;0.62;0.00;0.00;0.62;7.97;1.70;;;27.20;24.90;;;;;;2246902;61;20627;-50
2022/06/16 11:11:55;0.00;0.00;0.62;0.00;0.00;0.62;2.53;1.67;;;27.20;24.90;;;;;;2247610;61;20363;-48
2022/06/16 11:14:46;0.00;0.00;0.62;0.00;0.00;0.62;2.40;1.73;;;27.20;24.80;;;;;;2246747;61;20367;-49
2022/06/16 11:17:37;0.00;0.00;0.62;0.00;0.00;0.62;4.17;1.70;;;27.20;24.60;;;;;;2246979;61;20935;-49
2022/06/16 11:20:34;0.00;0.00;0.62;0.00;0.00;0.62;2.43;1.40;;;27.20;24.50;;;;;;2247646;61;20438;-56
2022/06/16 11:23:30;0.00;0.00;0.62;0.00;0.00;0.62;3.40;1.57;;;27.20;24.50;;;;;;2246636;61;20376;-53
2022/06/16 11:26:24;0.00;0.00;0.62;0.00;0.00;0.62;2.03;1.17;;;27.30;24.50;;;;;;2248072;61;20392;-49
2022/06/16 11:29:24;0.00;0.00;0.62;0.00;0.00;0.62;1.50;1.30;;;27.30;25.00;;;;;;2248252;61;20407;-52
2022/06/16 11:32:19;0.00;0.00;0.62;0.00;0.00;0.62;2.73;1.30;;;27.30;24.40;;;;;;2248304;61;20379;-52